createdAt,value
2018-08-17T00:02:19.406Z,8.53
2018-08-17T00:04:48.109Z,7.13
2018-08-17T00:07:16.996Z,7.50
2018-08-17T00:09:45.707Z,7.60
2018-08-17T00:12:14.497Z,6.70
2018-08-17T00:14:43.128Z,6.80
2018-08-17T00:17:11.870Z,5.97
2018-08-17T00:19:40.693Z,6.70
2018-08-17T00:22:09.550Z,7.40
2018-08-17T00:24:38.158Z,5.83
2018-08-17T00:27:06.887Z,4.67
2018-08-17T00:29:35.568Z,5.23
2018-08-17T00:32:04.582Z,5.30
2018-08-17T00:34:33.168Z,4.57
2018-08-17T00:37:01.771Z,5.23
2018-08-17T00:39:30.594Z,4.83
2018-08-17T00:41:59.250Z,4.60
2018-08-17T00:44:29.277Z,5.40
2018-08-17T00:46:57.983Z,4.93
2018-08-17T00:49:26.968Z,5.33
2018-08-17T00:51:56.310Z,5.00
2018-08-17T00:54:24.932Z,5.43
2018-08-17T00:56:53.543Z,5.67
2018-08-17T00:59:23.346Z,6.23
2018-08-17T01:01:52.121Z,6.20
2018-08-17T01:04:21.300Z,6.20
2018-08-17T01:06:49.993Z,6.13
2018-08-17T01:09:18.822Z,6.30
2018-08-17T01:11:47.416Z,6.30
2018-08-17T01:14:16.868Z,5.80
2018-08-17T01:16:45.873Z,5.30
2018-08-17T01:19:15.504Z,5.80
2018-08-17T01:21:44.619Z,6.27
2018-08-17T01:24:13.176Z,5.03
2018-08-17T01:26:42.289Z,5.13
2018-08-17T01:29:10.964Z,5.80
2018-08-17T01:31:39.546Z,6.80
2018-08-17T01:34:08.326Z,6.77
2018-08-17T01:36:37.263Z,6.13
2018-08-17T01:39:08.255Z,6.67
2018-08-17T01:41:36.991Z,7.10
2018-08-17T01:44:06.342Z,6.43
2018-08-17T01:46:35.202Z,7.33
2018-08-17T01:49:03.844Z,7.10
2018-08-17T01:51:33.089Z,7.30
2018-08-17T01:54:01.809Z,6.47
2018-08-17T01:56:30.834Z,7.03
2018-08-17T01:58:59.592Z,7.07
2018-08-17T02:01:28.448Z,6.53
2018-08-17T02:03:57.735Z,7.13
2018-08-17T02:06:26.643Z,6.77
2018-08-17T02:08:55.467Z,7.30
2018-08-17T02:11:25.391Z,6.73
2018-08-17T02:13:54.479Z,6.13
2018-08-17T02:16:23.265Z,6.13
2018-08-17T02:18:52.362Z,5.30
2018-08-17T02:21:21.379Z,5.50
2018-08-17T02:23:50.143Z,5.77
2018-08-17T02:26:19.350Z,5.37
2018-08-17T02:28:48.364Z,5.60
2018-08-17T02:31:17.103Z,4.97
2018-08-17T02:33:45.832Z,5.37
2018-08-17T02:36:14.886Z,5.97
2018-08-17T02:38:43.663Z,5.37
2018-08-17T02:41:12.469Z,5.70
2018-08-17T02:43:41.052Z,5.67
2018-08-17T02:46:10.004Z,5.27
2018-08-17T02:48:38.666Z,4.93
2018-08-17T02:51:07.400Z,4.87
2018-08-17T02:53:36.309Z,6.33
2018-08-17T02:56:04.908Z,5.60
2018-08-17T02:58:33.828Z,5.97
2018-08-17T03:01:02.794Z,5.60
2018-08-17T03:03:32.634Z,5.10
2018-08-17T03:06:01.702Z,5.07
2018-08-17T03:08:30.269Z,4.80
2018-08-17T03:10:58.863Z,4.83
2018-08-17T03:13:27.872Z,5.00
2018-08-17T03:15:56.461Z,4.90
2018-08-17T03:18:25.797Z,5.43
2018-08-17T03:20:54.512Z,4.93
2018-08-17T03:23:23.195Z,5.00
2018-08-17T03:25:51.912Z,5.53
2018-08-17T03:28:21.618Z,5.13
2018-08-17T03:30:51.043Z,5.10
2018-08-17T03:33:19.672Z,4.83
2018-08-17T03:35:48.207Z,4.63
2018-08-17T03:38:16.931Z,5.80
2018-08-17T03:40:45.624Z,4.90
2018-08-17T03:43:14.263Z,5.40
2018-08-17T03:45:42.833Z,4.90
2018-08-17T03:48:12.029Z,5.70
2018-08-17T03:50:41.456Z,4.60
2018-08-17T03:53:10.124Z,4.73
2018-08-17T03:55:39.315Z,4.50
2018-08-17T03:58:08.540Z,5.00
2018-08-17T04:00:37.305Z,4.60
2018-08-17T04:03:07.303Z,5.50
2018-08-17T04:05:36.614Z,4.87
2018-08-17T04:08:05.599Z,4.93
2018-08-17T04:10:35.226Z,4.70
2018-08-17T04:13:03.824Z,4.93
2018-08-17T04:15:32.576Z,5.17
2018-08-17T04:18:01.777Z,4.07
2018-08-17T04:20:30.589Z,4.50
2018-08-17T04:22:59.144Z,4.73
2018-08-17T04:25:28.269Z,4.77
2018-08-17T04:27:56.966Z,4.10
2018-08-17T04:30:25.764Z,4.30
2018-08-17T04:32:54.638Z,4.40
2018-08-17T04:35:23.266Z,4.53
2018-08-17T04:37:51.945Z,5.20
2018-08-17T04:40:20.845Z,4.17
2018-08-17T04:42:50.260Z,4.47
2018-08-17T04:45:18.902Z,4.23
2018-08-17T04:47:47.487Z,4.87
2018-08-17T04:50:16.069Z,4.37
2018-08-17T04:52:44.690Z,4.30
2018-08-17T04:55:13.439Z,4.57
2018-08-17T04:57:42.064Z,5.10
2018-08-17T05:00:11.329Z,4.70
2018-08-17T05:02:40.085Z,4.70
2018-08-17T05:05:09.328Z,4.97
2018-08-17T05:07:38.552Z,4.40
2018-08-17T05:10:08.608Z,4.53
2018-08-17T05:12:37.612Z,5.07
2018-08-17T05:15:06.772Z,4.73
2018-08-17T05:17:35.523Z,4.80
2018-08-17T05:20:04.635Z,4.90
2018-08-17T05:22:33.260Z,5.67
2018-08-17T05:25:01.859Z,5.43
2018-08-17T05:27:30.560Z,5.37
2018-08-17T05:29:59.758Z,5.90
2018-08-17T05:32:28.755Z,5.57
2018-08-17T05:34:57.347Z,5.60
2018-08-17T05:37:26.570Z,5.30
2018-08-17T05:39:55.608Z,5.07
2018-08-17T05:42:24.394Z,5.67
2018-08-17T05:44:52.968Z,5.63
2018-08-17T05:47:21.703Z,5.10
2018-08-17T05:49:50.470Z,7.27
2018-08-17T05:52:19.428Z,5.83
2018-08-17T05:54:48.351Z,6.10
2018-08-17T05:57:17.008Z,5.40
2018-08-17T05:59:45.695Z,5.80
2018-08-17T06:02:14.521Z,5.27
2018-08-17T06:04:43.143Z,5.73
2018-08-17T06:07:12.026Z,5.43
2018-08-17T06:09:41.482Z,5.40
2018-08-17T06:12:10.309Z,5.37
2018-08-17T06:14:39.835Z,5.17
2018-08-17T06:17:08.508Z,5.17
2018-08-17T06:19:38.070Z,5.47
2018-08-17T06:22:07.376Z,4.43
2018-08-17T06:24:36.031Z,4.07
2018-08-17T06:27:05.788Z,4.70
2018-08-17T06:29:34.409Z,4.40
2018-08-17T06:32:04.186Z,4.40
2018-08-17T06:34:33.278Z,6.40
2018-08-17T06:37:02.544Z,7.33
2018-08-17T06:39:31.274Z,6.63
2018-08-17T06:42:00.155Z,6.67
2018-08-17T06:44:30.397Z,8.47
2018-08-17T06:46:58.939Z,7.10
2018-08-17T06:49:27.939Z,5.97
2018-08-17T06:51:57.317Z,5.37
2018-08-17T06:54:26.049Z,4.50
2018-08-17T06:56:55.239Z,4.67
2018-08-17T06:59:24.242Z,4.00
2018-08-17T07:01:53.042Z,4.00
2018-08-17T07:04:22.074Z,4.37
2018-08-17T07:06:51.003Z,3.97
2018-08-17T07:09:20.060Z,4.37
2018-08-17T07:11:50.036Z,3.50
2018-08-17T07:14:18.989Z,4.20
2018-08-17T07:16:47.967Z,3.80
2018-08-17T07:19:16.550Z,3.73
2018-08-17T07:21:45.796Z,3.73
2018-08-17T07:24:14.511Z,3.47
2018-08-17T07:26:43.525Z,3.20
2018-08-17T07:29:12.499Z,3.33
2018-08-17T07:31:41.661Z,3.10
2018-08-17T07:34:10.593Z,3.30
2018-08-17T07:36:40.019Z,2.90
2018-08-17T07:39:08.947Z,2.87
2018-08-17T07:41:38.245Z,3.40
2018-08-17T07:44:06.809Z,3.53
2018-08-17T07:46:35.809Z,3.43
2018-08-17T07:49:04.692Z,3.17
2018-08-17T07:51:33.858Z,2.60
2018-08-17T07:54:03.140Z,3.20
2018-08-17T07:56:32.741Z,3.07
2018-08-17T07:59:02.545Z,2.60
2018-08-17T08:01:31.503Z,2.97
2018-08-17T08:04:00.195Z,2.83
2018-08-17T08:06:30.837Z,2.73
2018-08-17T08:09:00.185Z,2.63
2018-08-17T08:11:29.071Z,2.90
2018-08-17T08:13:58.027Z,2.73
2018-08-17T08:16:26.636Z,2.90
2018-08-17T08:18:55.503Z,2.50
2018-08-17T08:21:25.657Z,2.30
2018-08-17T08:23:57.228Z,2.47
2018-08-17T08:26:26.475Z,2.50
2018-08-17T08:28:56.622Z,2.53
2018-08-17T08:31:25.591Z,2.40
2018-08-17T08:33:54.603Z,2.80
2018-08-17T08:36:23.642Z,2.50
2018-08-17T08:38:52.647Z,2.50
2018-08-17T08:41:21.513Z,2.50
2018-08-17T08:43:50.259Z,2.73
2018-08-17T08:46:18.931Z,2.40
2018-08-17T08:48:47.632Z,2.37
2018-08-17T08:51:16.442Z,2.30
2018-08-17T08:53:44.992Z,2.53
2018-08-17T08:56:13.767Z,2.67
2018-08-17T08:58:42.429Z,2.53
2018-08-17T09:01:11.265Z,2.20
2018-08-17T09:03:40.189Z,2.27
2018-08-17T09:06:09.025Z,2.57
2018-08-17T09:08:37.761Z,2.27
2018-08-17T09:11:06.719Z,2.43
2018-08-17T09:13:35.644Z,3.30
2018-08-17T09:16:04.423Z,3.00
2018-08-17T09:18:33.054Z,2.00
2018-08-17T09:21:01.912Z,2.10
2018-08-17T09:23:30.863Z,2.00
2018-08-17T09:26:00.685Z,1.90
2018-08-17T09:28:29.362Z,1.60
2018-08-17T09:30:58.260Z,2.17
2018-08-17T09:33:27.035Z,1.57
2018-08-17T09:35:55.721Z,1.93
2018-08-17T09:38:24.324Z,1.80
2018-08-17T09:40:52.954Z,1.47
2018-08-17T09:43:22.765Z,1.40
2018-08-17T09:45:51.548Z,1.90
2018-08-17T09:48:20.191Z,1.87
2018-08-17T09:50:48.935Z,1.57
2018-08-17T09:53:17.968Z,2.20
2018-08-17T09:55:47.899Z,2.53
2018-08-17T09:58:17.333Z,2.53
2018-08-17T10:00:52.723Z,2.10
2018-08-17T10:03:27.957Z,1.77
2018-08-17T10:06:01.998Z,1.87
2018-08-17T10:08:37.527Z,1.60
2018-08-17T10:11:06.844Z,1.80
2018-08-17T10:13:35.457Z,1.80
2018-08-17T10:16:04.577Z,1.80
2018-08-17T10:18:41.214Z,2.10
2018-08-17T10:21:10.188Z,2.33
2018-08-17T10:23:38.724Z,1.97
2018-08-17T10:26:07.560Z,1.93
2018-08-17T10:28:36.459Z,2.13
2018-08-17T10:31:05.962Z,2.13
2018-08-17T10:33:40.321Z,2.07
2018-08-17T10:36:09.052Z,2.30
2018-08-17T10:38:37.814Z,2.17
2018-08-17T10:41:06.789Z,2.47
2018-08-17T10:43:35.634Z,2.50
2018-08-17T10:46:07.190Z,2.30
2018-08-17T10:48:36.737Z,2.50
2018-08-17T10:51:06.037Z,2.87
2018-08-17T10:53:42.646Z,2.60
2018-08-17T10:56:11.819Z,2.30
2018-08-17T10:58:40.706Z,2.70
2018-08-17T11:01:10.538Z,2.80
2018-08-17T11:03:39.693Z,2.70
2018-08-17T11:06:09.568Z,3.07
2018-08-17T11:08:39.506Z,2.60
2018-08-17T11:11:08.928Z,2.63
2018-08-17T11:13:37.735Z,2.87
2018-08-17T11:16:07.465Z,3.10
2018-08-17T11:18:36.182Z,2.90
2018-08-17T11:21:04.878Z,3.03
2018-08-17T11:23:33.679Z,2.80
2018-08-17T11:26:02.213Z,2.90
2018-08-17T11:28:32.160Z,2.80
2018-08-17T11:31:00.794Z,2.83
2018-08-17T11:33:30.012Z,2.50
2018-08-17T11:36:02.021Z,2.63
2018-08-17T11:38:30.788Z,2.47
2018-08-17T11:40:59.405Z,2.57
2018-08-17T11:43:28.247Z,2.37
2018-08-17T11:45:56.901Z,2.53
2018-08-17T11:48:30.715Z,2.43
2018-08-17T11:50:59.514Z,2.40
2018-08-17T11:53:28.622Z,2.40
2018-08-17T11:55:57.290Z,2.57
2018-08-17T11:58:25.992Z,2.40
2018-08-17T12:00:54.578Z,2.90
2018-08-17T12:03:23.162Z,2.47
2018-08-17T12:05:51.754Z,2.50
2018-08-17T12:08:21.439Z,2.50
2018-08-17T12:10:55.420Z,2.10
2018-08-17T12:13:24.807Z,2.63
2018-08-17T12:15:56.183Z,2.20
2018-08-17T12:18:25.278Z,2.60
2018-08-17T12:20:54.467Z,1.97
2018-08-17T12:23:23.792Z,2.23
2018-08-17T12:25:56.200Z,2.57
2018-08-17T12:28:25.963Z,2.30
2018-08-17T12:30:54.691Z,2.07
2018-08-17T12:33:23.326Z,2.17
2018-08-17T12:35:52.219Z,2.40
2018-08-17T12:38:20.804Z,2.90
2018-08-17T12:40:50.795Z,2.77
2018-08-17T12:43:24.983Z,2.53
2018-08-17T12:45:53.734Z,2.07
2018-08-17T12:48:22.561Z,2.07
2018-08-17T12:50:51.175Z,2.17
2018-08-17T12:53:19.886Z,2.10
2018-08-17T12:55:48.553Z,1.97
2018-08-17T12:58:17.405Z,2.40
2018-08-17T13:00:46.198Z,2.80
2018-08-17T13:03:14.894Z,2.40
2018-08-17T13:05:43.832Z,2.20
2018-08-17T13:08:12.832Z,2.20
2018-08-17T13:10:41.590Z,2.20
2018-08-17T13:13:11.071Z,2.00
2018-08-17T13:16:14.251Z,1.80
2018-08-17T13:18:43.072Z,1.87
2018-08-17T13:21:11.820Z,2.03
2018-08-17T13:23:40.520Z,1.90
2018-08-17T13:26:09.207Z,2.30
2018-08-17T13:28:37.874Z,2.40
2018-08-17T13:31:06.578Z,2.07
2018-08-17T13:33:35.356Z,1.90
2018-08-17T13:36:04.115Z,2.17
2018-08-17T13:38:32.764Z,2.03
2018-08-17T13:41:01.443Z,2.30
2018-08-17T13:43:30.265Z,2.03
2018-08-17T13:45:58.962Z,2.20
2018-08-17T13:48:27.643Z,2.20
2018-08-17T13:50:56.279Z,2.40
2018-08-17T13:53:25.150Z,2.10
2018-08-17T13:55:53.758Z,2.40
2018-08-17T13:58:23.637Z,1.90
2018-08-17T14:00:52.960Z,3.00
2018-08-17T14:03:21.702Z,2.73
2018-08-17T14:05:50.335Z,2.50
2018-08-17T14:08:18.961Z,2.40
2018-08-17T14:10:48.032Z,2.77
2018-08-17T14:13:16.636Z,2.67
2018-08-17T14:15:45.308Z,3.00
2018-08-17T14:18:13.972Z,2.60
2018-08-17T14:20:42.635Z,2.83
2018-08-17T14:23:11.449Z,2.83
2018-08-17T14:25:40.135Z,2.53
2018-08-17T14:28:08.824Z,2.53
2018-08-17T14:30:37.478Z,2.70
2018-08-17T14:33:06.298Z,2.60
2018-08-17T14:35:35.196Z,2.50
2018-08-17T14:38:03.944Z,2.40
2018-08-17T14:40:32.661Z,2.70
2018-08-17T14:43:01.395Z,2.43
2018-08-17T14:45:30.035Z,2.27
2018-08-17T14:47:58.684Z,2.53
2018-08-17T14:50:27.555Z,2.60
2018-08-17T14:52:56.121Z,2.73
2018-08-17T14:55:24.906Z,2.30
2018-08-17T14:57:54.161Z,2.53
2018-08-17T15:00:22.828Z,2.60
2018-08-17T15:02:51.468Z,2.20
2018-08-17T15:05:20.066Z,2.43
2018-08-17T15:07:48.692Z,2.40
2018-08-17T15:10:17.297Z,2.53
2018-08-17T15:12:45.968Z,2.70
2018-08-17T15:15:14.836Z,2.73
2018-08-17T15:17:43.470Z,2.50
2018-08-17T15:20:13.163Z,2.30
2018-08-17T15:22:42.047Z,2.50
2018-08-17T15:25:10.851Z,2.97
2018-08-17T15:30:22.844Z,2.60
2018-08-17T15:32:51.494Z,2.20
2018-08-17T15:35:20.220Z,2.63
2018-08-17T15:37:48.797Z,2.83
2018-08-17T15:40:17.939Z,2.60
2018-08-17T15:42:46.520Z,2.73
2018-08-17T15:45:21.279Z,2.73
2018-08-17T15:47:49.928Z,2.20
2018-08-17T15:50:20.001Z,2.60
2018-08-17T15:52:48.805Z,2.80
2018-08-17T15:55:18.244Z,2.50
2018-08-17T15:57:47.360Z,2.50
2018-08-17T16:00:19.623Z,2.63
2018-08-17T16:02:48.238Z,2.77
2018-08-17T16:05:16.986Z,2.70
2018-08-17T16:07:45.639Z,2.63
2018-08-17T16:10:15.599Z,2.63
2018-08-17T16:12:45.035Z,2.57
2018-08-17T16:15:13.944Z,2.50
2018-08-17T16:17:42.527Z,2.57
2018-08-17T16:20:12.448Z,2.63
2018-08-17T16:22:41.952Z,2.87
2018-08-17T16:25:11.444Z,3.00
2018-08-17T16:27:41.017Z,2.67
2018-08-17T16:30:13.500Z,3.13
2018-08-17T16:32:42.472Z,3.07
2018-08-17T16:35:12.093Z,3.07
2018-08-17T16:37:47.240Z,2.80
2018-08-17T16:40:16.563Z,2.60
2018-08-17T16:42:46.330Z,2.37
2018-08-17T16:45:15.284Z,3.00
2018-08-17T16:47:44.054Z,3.10
2018-08-17T16:50:12.669Z,2.27
2018-08-17T16:52:41.367Z,2.30
2018-08-17T16:55:09.965Z,2.07
2018-08-17T16:57:39.018Z,2.23
2018-08-17T17:00:09.499Z,2.20
2018-08-17T17:02:38.599Z,2.07
2018-08-17T17:05:08.140Z,2.20
2018-08-17T17:07:36.677Z,2.43
2018-08-17T17:10:07.051Z,1.87
2018-08-17T17:12:36.257Z,2.10
2018-08-17T17:15:25.622Z,2.47
2018-08-17T17:17:59.491Z,2.23
2018-08-17T17:20:33.630Z,2.20
2018-08-17T17:23:02.763Z,2.00
2018-08-17T17:25:31.481Z,2.07
2018-08-17T17:28:00.082Z,2.23
2018-08-17T17:30:36.911Z,2.23
2018-08-17T17:33:05.587Z,2.80
2018-08-17T17:35:34.432Z,2.27
2018-08-17T17:38:03.208Z,2.80
2018-08-17T17:40:32.268Z,2.20
2018-08-17T17:43:01.064Z,2.03
2018-08-17T17:45:30.204Z,2.73
2018-08-17T17:47:59.677Z,2.77
2018-08-17T17:50:28.463Z,2.30
2018-08-17T17:52:57.189Z,2.10
2018-08-17T17:55:30.033Z,2.60
2018-08-17T17:57:58.703Z,2.70
2018-08-17T18:00:27.304Z,2.33
2018-08-17T18:02:55.870Z,2.43
2018-08-17T18:05:24.815Z,2.47
2018-08-17T18:07:53.699Z,2.53
2018-08-17T18:10:22.861Z,2.37
2018-08-17T18:12:53.083Z,2.70
2018-08-17T18:15:21.834Z,2.33
2018-08-17T18:17:51.661Z,2.63
2018-08-17T18:20:21.561Z,2.37
2018-08-17T18:22:51.681Z,2.40
2018-08-17T18:25:20.523Z,2.70
2018-08-17T18:27:49.818Z,2.40
2018-08-17T18:30:19.249Z,2.47
2018-08-17T18:32:48.488Z,2.70
2018-08-17T18:35:17.508Z,2.67
2018-08-17T18:37:46.505Z,2.40
2018-08-17T18:40:15.260Z,2.80
2018-08-17T18:42:43.923Z,2.77
2018-08-17T18:45:13.239Z,2.70
2018-08-17T18:47:42.783Z,2.50
2018-08-17T18:50:11.648Z,2.43
2018-08-17T18:52:40.839Z,2.77
2018-08-17T18:55:09.801Z,2.50
2018-08-17T18:57:38.659Z,2.47
2018-08-17T19:00:09.900Z,2.37
2018-08-17T19:02:38.889Z,2.77
2018-08-17T19:05:08.034Z,2.97
2018-08-17T19:07:37.330Z,2.47
2018-08-17T19:10:06.699Z,2.70
2018-08-17T19:12:35.827Z,3.10
2018-08-17T19:15:08.990Z,2.93
2018-08-17T19:17:38.031Z,3.10
2018-08-17T19:20:08.915Z,2.80
2018-08-17T19:22:40.063Z,2.60
2018-08-17T19:25:10.404Z,3.20
2018-08-17T19:27:39.931Z,2.77
2018-08-17T19:30:25.591Z,2.70
2018-08-17T19:32:58.973Z,2.63
2018-08-17T19:35:28.092Z,2.90
2018-08-17T19:37:56.915Z,3.30
2018-08-17T19:40:26.591Z,3.33
2018-08-17T19:42:55.672Z,3.20
2018-08-17T19:45:29.666Z,3.40
2018-08-17T19:47:58.561Z,3.20
2018-08-17T19:50:27.186Z,3.10
2018-08-17T19:52:56.265Z,3.33
2018-08-17T19:55:24.873Z,3.07
2018-08-17T19:57:53.603Z,3.30
2018-08-17T20:00:22.506Z,3.07
2018-08-17T20:02:51.120Z,3.00
2018-08-17T20:05:19.795Z,3.43
2018-08-17T20:07:48.448Z,3.20
2018-08-17T20:10:16.991Z,2.80
2018-08-17T20:12:45.764Z,3.00
2018-08-17T20:15:14.747Z,3.30
2018-08-17T20:17:50.185Z,2.93
2018-08-17T20:20:19.006Z,3.07
2018-08-17T20:22:47.597Z,3.30
2018-08-17T20:25:17.374Z,2.50
2018-08-17T20:27:46.681Z,3.17
2018-08-17T20:30:24.414Z,2.93
2018-08-17T20:32:52.987Z,2.97
2018-08-17T20:35:22.062Z,2.97
2018-08-17T20:37:52.597Z,3.00
2018-08-17T20:40:21.693Z,2.73
2018-08-17T20:42:50.443Z,2.80
2018-08-17T20:45:20.190Z,3.13
2018-08-17T20:47:49.034Z,3.77
2018-08-17T20:50:18.960Z,3.33
2018-08-17T20:52:57.549Z,3.20
2018-08-17T20:55:26.273Z,2.73
2018-08-17T20:57:56.159Z,3.43
2018-08-17T21:00:26.264Z,3.07
2018-08-17T21:02:55.912Z,3.47
2018-08-17T21:05:24.563Z,3.70
2018-08-17T21:07:53.143Z,3.43
2018-08-17T21:10:21.890Z,3.73
2018-08-17T21:12:51.085Z,3.70
2018-08-17T21:15:19.959Z,3.23
2018-08-17T21:17:48.924Z,3.60
2018-08-17T21:20:17.535Z,3.83
2018-08-17T21:22:46.219Z,3.53
2018-08-17T21:25:15.254Z,3.70
2018-08-17T21:27:43.992Z,4.20
2018-08-17T21:30:12.719Z,4.00
2018-08-17T21:32:41.280Z,3.67
2018-08-17T21:35:10.274Z,4.40
2018-08-17T21:37:38.895Z,3.63
2018-08-17T21:40:15.224Z,4.10
2018-08-17T21:42:44.017Z,4.70
2018-08-17T21:45:12.715Z,4.50
2018-08-17T21:47:42.037Z,4.90
2018-08-17T21:50:15.924Z,4.70
2018-08-17T21:52:45.495Z,5.03
2018-08-17T21:55:14.709Z,5.57
2018-08-17T21:57:43.995Z,5.40
2018-08-17T22:00:19.653Z,5.63
2018-08-17T22:03:05.288Z,5.73
2018-08-17T22:05:34.775Z,5.90
2018-08-17T22:08:03.367Z,6.43
2018-08-17T22:10:31.928Z,5.80
2018-08-17T22:13:00.585Z,6.40
2018-08-17T22:15:30.533Z,5.50
2018-08-17T22:17:59.282Z,5.40
2018-08-17T22:20:27.893Z,6.27
2018-08-17T22:22:56.655Z,5.90
2018-08-17T22:25:25.229Z,6.00
2018-08-17T22:27:53.968Z,6.17
2018-08-17T22:30:23.903Z,6.00
2018-08-17T22:32:53.338Z,6.37
2018-08-17T22:35:22.061Z,6.17
2018-08-17T22:37:50.663Z,6.20
2018-08-17T22:40:19.292Z,6.23
2018-08-17T22:42:49.064Z,6.30
2018-08-17T22:45:17.803Z,7.60
2018-08-17T22:47:46.357Z,7.47
2018-08-17T22:50:14.975Z,7.07
2018-08-17T22:52:43.718Z,6.90
2018-08-17T22:55:12.316Z,7.00
2018-08-17T22:57:40.914Z,7.50
2018-08-17T23:00:31.354Z,7.63
2018-08-17T23:03:01.789Z,7.33
2018-08-17T23:05:34.210Z,7.00
2018-08-17T23:08:02.872Z,7.50
2018-08-17T23:10:31.503Z,7.67
2018-08-17T23:13:00.087Z,7.47
2018-08-17T23:15:28.701Z,7.50
2018-08-17T23:18:00.074Z,7.97
2018-08-17T23:20:33.702Z,8.07
2018-08-17T23:23:03.215Z,7.67
2018-08-17T23:25:31.985Z,9.37
2018-08-17T23:28:01.285Z,8.53
2018-08-17T23:30:30.224Z,8.73
2018-08-17T23:32:59.174Z,9.10
2018-08-17T23:35:28.094Z,8.53
2018-08-17T23:37:56.777Z,8.93
2018-08-17T23:40:25.383Z,9.33
2018-08-17T23:42:54.018Z,9.13
2018-08-17T23:45:22.554Z,9.60
2018-08-17T23:47:51.091Z,9.67
2018-08-17T23:50:19.749Z,9.50
2018-08-17T23:52:48.374Z,10.00
2018-08-17T23:55:18.174Z,10.00
2018-08-17T23:57:47.380Z,9.77
